createdAt,value
2017-10-24T00:00:11.292Z,11.50
2017-10-24T00:02:38.728Z,11.50
2017-10-24T00:05:06.172Z,11.50
2017-10-24T00:07:33.615Z,11.60
2017-10-24T00:10:01.037Z,11.60
2017-10-24T00:12:29.230Z,11.70
2017-10-24T00:14:56.655Z,11.70
2017-10-24T00:17:24.856Z,11.80
2017-10-24T00:19:52.284Z,11.70
2017-10-24T00:22:20.488Z,11.80
2017-10-24T00:24:47.916Z,11.70
2017-10-24T00:27:16.116Z,11.90
2017-10-24T00:29:43.547Z,11.80
2017-10-24T00:32:10.981Z,11.80
2017-10-24T00:34:38.413Z,11.80
2017-10-24T00:37:09.804Z,11.90
2017-10-24T00:39:37.236Z,11.90
2017-10-24T00:42:04.672Z,12.00
2017-10-24T00:44:32.103Z,11.90
2017-10-24T00:46:59.539Z,12.00
2017-10-24T00:49:26.960Z,12.00
2017-10-24T00:51:54.394Z,11.90
2017-10-24T00:54:21.822Z,11.90
2017-10-24T00:56:50.026Z,11.90
2017-10-24T00:59:17.455Z,11.90
2017-10-24T01:01:45.653Z,12.00
2017-10-24T01:04:13.081Z,11.90
2017-10-24T01:06:41.286Z,11.90
2017-10-24T01:09:08.708Z,11.90
2017-10-24T01:11:36.907Z,11.90
2017-10-24T01:14:04.339Z,11.90
2017-10-24T01:16:32.545Z,11.90
2017-10-24T01:18:59.972Z,11.90
2017-10-24T01:21:28.176Z,11.90
2017-10-24T01:23:55.596Z,11.90
2017-10-24T01:26:23.806Z,11.90
2017-10-24T01:28:51.232Z,11.90
2017-10-24T01:31:19.419Z,11.90
2017-10-24T01:33:46.844Z,11.90
2017-10-24T01:36:14.277Z,11.90
2017-10-24T01:38:41.714Z,11.90
2017-10-24T01:41:09.136Z,11.90
2017-10-24T01:43:37.330Z,11.90
2017-10-24T01:46:04.760Z,11.90
2017-10-24T01:48:32.956Z,12.00
2017-10-24T01:51:00.393Z,12.00
2017-10-24T01:53:28.600Z,12.00
2017-10-24T01:55:56.034Z,12.00
2017-10-24T01:58:24.289Z,12.10
2017-10-24T02:00:51.722Z,12.00
2017-10-24T02:03:20.225Z,12.10
2017-10-24T02:05:47.664Z,12.10
2017-10-24T02:08:15.102Z,12.10
2017-10-24T02:10:42.528Z,12.00
2017-10-24T02:13:09.960Z,12.10
2017-10-24T02:15:38.180Z,12.10
2017-10-24T02:18:05.607Z,12.10
2017-10-24T02:20:33.040Z,12.10
2017-10-24T02:23:00.488Z,12.10
2017-10-24T02:25:27.921Z,12.10
2017-10-24T02:27:55.361Z,12.10
2017-10-24T02:30:22.799Z,12.10
2017-10-24T02:32:50.242Z,12.10
2017-10-24T02:35:18.496Z,12.20
2017-10-24T02:37:45.964Z,12.20
2017-10-24T02:40:14.170Z,12.20
2017-10-24T02:42:41.601Z,12.10
2017-10-24T02:45:09.800Z,12.10
2017-10-24T02:47:37.254Z,12.10
2017-10-24T02:50:04.677Z,12.10
2017-10-24T02:52:32.118Z,12.10
2017-10-24T02:54:59.561Z,12.10
2017-10-24T02:57:27.002Z,12.00
2017-10-24T02:59:54.442Z,12.10
2017-10-24T03:02:21.877Z,12.00
2017-10-24T03:04:50.069Z,12.00
2017-10-24T03:07:17.514Z,12.00
2017-10-24T03:09:45.717Z,12.00
2017-10-24T03:12:13.157Z,12.00
2017-10-24T03:14:40.589Z,12.00
2017-10-24T03:17:08.801Z,12.00
2017-10-24T03:19:36.234Z,12.00
2017-10-24T03:22:04.437Z,12.10
2017-10-24T03:24:31.872Z,12.00
2017-10-24T03:26:59.313Z,12.10
2017-10-24T03:29:27.533Z,12.00
2017-10-24T03:31:54.990Z,12.00
2017-10-24T03:34:22.420Z,12.10
2017-10-24T03:36:49.864Z,12.10
2017-10-24T03:39:18.057Z,12.00
2017-10-24T03:41:45.492Z,12.00
2017-10-24T03:44:13.696Z,12.00
2017-10-24T03:46:41.146Z,12.00
2017-10-24T03:49:08.579Z,12.00
2017-10-24T03:51:36.795Z,12.00
2017-10-24T03:54:07.683Z,12.00
2017-10-24T03:56:35.890Z,12.10
2017-10-24T03:59:04.335Z,12.10
2017-10-24T04:01:32.540Z,12.00
2017-10-24T04:03:59.972Z,12.00
2017-10-24T04:06:28.194Z,12.00
2017-10-24T04:08:55.625Z,12.00
2017-10-24T04:11:23.053Z,12.00
2017-10-24T04:13:50.498Z,12.00
2017-10-24T04:16:17.937Z,11.90
2017-10-24T04:18:45.382Z,12.00
2017-10-24T04:21:12.811Z,12.00
2017-10-24T04:23:40.257Z,12.00
2017-10-24T04:26:08.469Z,11.90
2017-10-24T04:28:35.919Z,11.90
2017-10-24T04:31:03.357Z,11.90
2017-10-24T04:33:30.798Z,12.00
2017-10-24T04:35:58.993Z,12.00
2017-10-24T04:38:26.434Z,12.00
2017-10-24T04:40:54.640Z,12.00
2017-10-24T04:43:22.079Z,12.00
2017-10-24T04:45:49.512Z,11.90
2017-10-24T04:48:17.729Z,11.90
2017-10-24T04:50:45.164Z,11.90
2017-10-24T04:53:12.604Z,12.00
2017-10-24T04:55:40.818Z,11.90
2017-10-24T04:58:08.260Z,11.90
2017-10-24T05:00:35.677Z,12.00
2017-10-24T05:03:03.122Z,12.00
2017-10-24T05:05:30.556Z,12.00
2017-10-24T05:07:57.999Z,12.00
2017-10-24T05:10:27.252Z,11.90
2017-10-24T05:12:54.685Z,11.90
2017-10-24T05:15:22.117Z,11.90
2017-10-24T05:17:49.567Z,12.00
2017-10-24T05:20:17.010Z,12.00
2017-10-24T05:22:44.457Z,11.90
2017-10-24T05:25:11.885Z,11.90
2017-10-24T05:27:39.329Z,12.00
2017-10-24T05:30:06.760Z,12.00
2017-10-24T05:32:34.203Z,11.90
2017-10-24T05:35:01.629Z,11.90
2017-10-24T05:37:29.069Z,12.00
2017-10-24T05:39:56.505Z,11.90
2017-10-24T05:42:23.948Z,11.90
2017-10-24T05:44:51.386Z,11.90
2017-10-24T05:47:18.818Z,11.90
2017-10-24T05:49:47.089Z,11.90
2017-10-24T05:52:15.285Z,11.90
2017-10-24T05:54:42.727Z,11.90
2017-10-24T05:57:10.930Z,11.90
2017-10-24T05:59:38.364Z,11.90
2017-10-24T06:02:05.795Z,12.00
2017-10-24T06:04:33.242Z,12.00
2017-10-24T06:07:00.664Z,12.00
2017-10-24T06:09:28.108Z,12.00
2017-10-24T06:11:55.545Z,12.00
2017-10-24T06:14:22.980Z,12.00
2017-10-24T06:16:51.189Z,12.00
2017-10-24T06:19:18.638Z,12.00
2017-10-24T06:21:46.074Z,12.00
2017-10-24T06:24:13.522Z,12.00
2017-10-24T06:26:40.962Z,12.00
2017-10-24T06:29:08.396Z,12.00
2017-10-24T06:31:35.832Z,12.00
2017-10-24T06:34:03.276Z,12.00
2017-10-24T06:36:30.708Z,12.00
2017-10-24T06:38:58.940Z,12.10
2017-10-24T06:41:26.385Z,12.00
2017-10-24T06:43:53.812Z,12.00
2017-10-24T06:46:22.019Z,12.00
2017-10-24T06:48:49.460Z,12.00
2017-10-24T06:51:16.892Z,12.00
2017-10-24T06:53:45.089Z,12.00
2017-10-24T06:56:12.531Z,12.10
2017-10-24T06:58:40.740Z,12.10
2017-10-24T07:01:08.176Z,12.10
2017-10-24T07:03:35.609Z,12.00
2017-10-24T07:06:03.824Z,12.00
2017-10-24T07:08:31.253Z,12.10
2017-10-24T07:10:59.457Z,12.20
2017-10-24T07:13:26.890Z,12.10
2017-10-24T07:15:54.329Z,12.20
2017-10-24T07:18:22.528Z,12.20
2017-10-24T07:20:49.972Z,12.20
2017-10-24T07:23:18.178Z,12.30
2017-10-24T07:25:45.620Z,12.30
2017-10-24T07:28:13.053Z,12.30
2017-10-24T07:30:41.252Z,12.30
2017-10-24T07:33:08.703Z,12.30
2017-10-24T07:35:36.128Z,12.30
2017-10-24T07:38:03.568Z,12.40
2017-10-24T07:40:30.998Z,12.50
2017-10-24T07:42:58.451Z,12.50
2017-10-24T07:45:25.874Z,12.60
2017-10-24T07:47:54.081Z,12.60
2017-10-24T07:50:21.514Z,12.60
2017-10-24T07:52:48.943Z,12.70
2017-10-24T07:55:16.376Z,12.60
2017-10-24T07:57:43.820Z,12.70
2017-10-24T08:00:11.248Z,12.60
2017-10-24T08:02:38.676Z,12.60
2017-10-24T08:05:06.886Z,12.70
2017-10-24T08:07:34.304Z,12.70
2017-10-24T08:10:02.509Z,12.70
2017-10-24T08:12:29.947Z,12.70
2017-10-24T08:14:58.146Z,12.80
2017-10-24T08:17:25.580Z,12.70
2017-10-24T08:19:53.776Z,12.80
2017-10-24T08:22:21.214Z,12.80
2017-10-24T08:24:49.421Z,12.80
2017-10-24T08:27:16.860Z,12.70
2017-10-24T08:29:44.288Z,12.70
2017-10-24T08:32:12.510Z,12.80
2017-10-24T08:34:39.950Z,12.80
2017-10-24T08:37:07.372Z,12.90
2017-10-24T08:39:35.860Z,12.90
2017-10-24T08:42:04.062Z,13.00
2017-10-24T08:44:31.501Z,13.00
2017-10-24T08:46:59.710Z,13.10
2017-10-24T08:49:27.160Z,13.00
2017-10-24T08:51:54.592Z,13.00
2017-10-24T08:54:22.800Z,13.10
2017-10-24T08:56:50.225Z,13.00
2017-10-24T08:59:17.660Z,13.00
2017-10-24T09:01:45.090Z,13.10
2017-10-24T09:04:12.528Z,13.20
2017-10-24T09:06:39.963Z,13.20
2017-10-24T09:12:21.752Z,13.30
2017-10-24T09:14:49.954Z,13.30
2017-10-24T09:17:38.882Z,13.20
2017-10-24T09:20:08.112Z,13.20
2017-10-24T09:22:35.546Z,13.30
2017-10-24T09:25:07.610Z,13.30
2017-10-24T09:27:35.806Z,13.30
2017-10-24T09:30:03.241Z,13.30
2017-10-24T09:32:37.042Z,13.20
2017-10-24T09:35:05.244Z,13.30
2017-10-24T09:37:32.673Z,13.30
2017-10-24T09:40:00.884Z,13.40
2017-10-24T09:42:28.313Z,13.30
2017-10-24T09:44:56.523Z,13.60
2017-10-24T09:47:23.958Z,13.60
2017-10-24T09:49:57.195Z,13.70
2017-10-24T09:52:25.380Z,13.70
2017-10-24T09:54:52.829Z,13.70
2017-10-24T09:57:20.260Z,13.80
2017-10-24T09:59:47.705Z,13.80
2017-10-24T10:02:15.131Z,13.80
2017-10-24T10:04:43.338Z,13.90
2017-10-24T10:07:10.768Z,13.90
2017-10-24T10:09:38.964Z,14.00
2017-10-24T10:12:09.367Z,14.00
2017-10-24T10:14:36.792Z,14.00
2017-10-24T10:17:04.217Z,14.00
2017-10-24T10:19:31.661Z,14.10
2017-10-24T10:21:59.089Z,14.10
2017-10-24T10:24:43.081Z,14.10
2017-10-24T10:27:10.518Z,14.10
2017-10-24T10:29:37.936Z,14.10
2017-10-24T10:32:05.368Z,14.10
2017-10-24T10:34:32.824Z,14.20
2017-10-24T10:37:00.277Z,14.20
2017-10-24T10:39:27.711Z,14.30
2017-10-24T10:41:55.139Z,14.30
2017-10-24T10:44:23.351Z,14.50
2017-10-24T10:46:50.786Z,14.50
2017-10-24T10:49:18.217Z,14.50
2017-10-24T10:51:46.412Z,14.60
2017-10-24T10:54:13.840Z,14.70
2017-10-24T10:56:41.280Z,14.70
2017-10-24T10:59:08.704Z,14.70
2017-10-24T11:01:36.141Z,14.70
2017-10-24T11:04:03.570Z,14.70
2017-10-24T11:06:31.041Z,14.70
2017-10-24T11:08:58.450Z,14.80
2017-10-24T11:11:25.896Z,14.80
2017-10-24T11:13:53.303Z,14.90
2017-10-24T11:16:21.509Z,14.70
2017-10-24T11:18:48.941Z,14.70
2017-10-24T11:21:17.136Z,14.70
2017-10-24T11:23:44.553Z,14.70
2017-10-24T11:26:11.992Z,14.70
2017-10-24T11:28:39.420Z,14.70
2017-10-24T11:31:06.856Z,14.70
2017-10-24T11:33:34.281Z,14.80
2017-10-24T11:36:01.716Z,14.80
2017-10-24T11:38:29.152Z,14.80
2017-10-24T11:40:56.584Z,14.90
2017-10-24T11:43:24.004Z,14.90
2017-10-24T11:45:51.437Z,15.00
2017-10-24T11:48:18.871Z,15.00
2017-10-24T11:50:46.300Z,15.00
2017-10-24T11:53:14.506Z,15.00
2017-10-24T11:55:41.928Z,15.00
2017-10-24T11:58:10.137Z,15.10
2017-10-24T12:00:37.577Z,15.10
2017-10-24T12:03:05.013Z,15.20
2017-10-24T12:05:33.817Z,15.20
2017-10-24T12:08:01.258Z,15.10
2017-10-24T12:10:30.447Z,15.20
2017-10-24T12:12:57.879Z,15.20
2017-10-24T12:15:25.310Z,15.30
2017-10-24T12:17:52.740Z,15.40
2017-10-24T12:20:20.170Z,15.50
2017-10-24T12:22:47.600Z,15.60
2017-10-24T12:25:15.026Z,15.70
2017-10-24T12:27:42.465Z,15.70
2017-10-24T12:30:10.666Z,15.90
2017-10-24T12:32:38.102Z,15.90
2017-10-24T12:35:05.526Z,16.10
2017-10-24T12:37:32.965Z,16.10
2017-10-24T12:40:00.434Z,16.10
2017-10-24T12:42:30.305Z,16.20
2017-10-24T12:45:12.425Z,16.20
2017-10-24T12:47:39.859Z,16.10
2017-10-24T12:50:21.006Z,16.10
2017-10-24T12:52:49.212Z,16.10
2017-10-24T12:55:16.637Z,16.10
2017-10-24T12:57:44.839Z,16.00
2017-10-24T13:00:12.712Z,16.00
2017-10-24T13:02:40.155Z,16.10
2017-10-24T13:05:10.165Z,16.10
2017-10-24T13:07:37.608Z,16.10
2017-10-24T13:10:05.800Z,16.10
2017-10-24T13:12:33.261Z,16.10
2017-10-24T13:15:00.690Z,16.20
2017-10-24T13:17:28.886Z,16.20
2017-10-24T13:19:56.316Z,16.30
2017-10-24T13:22:24.508Z,16.40
2017-10-24T13:24:51.949Z,16.40
2017-10-24T13:27:19.382Z,16.50
2017-10-24T13:29:46.833Z,16.60
2017-10-24T13:32:14.252Z,16.60
2017-10-24T13:34:41.676Z,16.60
2017-10-24T13:37:09.877Z,16.60
2017-10-24T13:39:37.309Z,16.50
2017-10-24T13:42:05.504Z,16.60
2017-10-24T13:44:32.943Z,16.60
2017-10-24T13:47:01.155Z,16.60
2017-10-24T13:49:28.611Z,16.60
2017-10-24T13:51:56.040Z,16.60
2017-10-24T13:54:24.370Z,16.70
2017-10-24T13:56:51.791Z,16.60
2017-10-24T13:59:19.241Z,16.60
2017-10-24T14:01:46.689Z,16.60
2017-10-24T14:04:20.525Z,16.70
2017-10-24T14:06:53.714Z,16.70
2017-10-24T14:09:26.876Z,16.70
2017-10-24T14:11:54.316Z,16.70
2017-10-24T14:14:22.525Z,16.80
2017-10-24T14:16:49.969Z,16.80
2017-10-24T14:19:17.396Z,16.90
2017-10-24T14:21:44.869Z,16.90
2017-10-24T14:24:13.064Z,16.90
2017-10-24T14:26:40.522Z,16.80
2017-10-24T14:29:08.027Z,16.80
2017-10-24T14:31:35.463Z,16.80
2017-10-24T14:34:02.904Z,16.80
2017-10-24T14:36:30.328Z,16.70
2017-10-24T14:38:58.538Z,16.70
2017-10-24T14:41:25.966Z,16.70
2017-10-24T14:43:54.168Z,16.70
2017-10-24T14:46:21.601Z,16.70
2017-10-24T14:48:49.814Z,16.60
2017-10-24T14:51:17.245Z,16.60
2017-10-24T14:53:44.680Z,16.70
2017-10-24T14:56:12.877Z,16.60
2017-10-24T14:58:40.325Z,16.60
2017-10-24T15:01:07.829Z,16.60
2017-10-24T15:03:35.281Z,16.50
2017-10-24T15:06:02.794Z,16.50
2017-10-24T15:08:31.136Z,16.40
2017-10-24T15:10:58.555Z,16.40
2017-10-24T15:13:25.992Z,16.30
2017-10-24T15:15:53.447Z,16.30
2017-10-24T15:18:21.629Z,16.30
2017-10-24T15:20:49.064Z,16.30
2017-10-24T15:23:17.253Z,16.30
2017-10-24T15:25:44.866Z,16.30
2017-10-24T15:28:12.276Z,16.40
2017-10-24T15:30:39.721Z,16.40
2017-10-24T15:33:07.913Z,16.30
2017-10-24T15:35:36.400Z,16.30
2017-10-24T15:38:04.833Z,16.40
2017-10-24T15:40:32.266Z,16.30
2017-10-24T15:42:59.701Z,16.30
2017-10-24T15:45:27.129Z,16.30
2017-10-24T15:47:59.051Z,16.30
2017-10-24T15:50:26.473Z,16.30
2017-10-24T15:52:53.973Z,16.30
2017-10-24T15:55:21.407Z,16.20
2017-10-24T15:57:48.909Z,16.20
2017-10-24T16:00:17.105Z,16.10
2017-10-24T16:02:44.736Z,16.10
2017-10-24T16:05:12.941Z,16.10
2017-10-24T16:07:40.401Z,16.10
2017-10-24T16:10:07.823Z,16.10
2017-10-24T16:12:35.248Z,16.10
2017-10-24T16:15:02.688Z,16.10
2017-10-24T16:17:30.123Z,16.10
2017-10-24T16:19:57.566Z,16.00
2017-10-24T16:22:25.758Z,16.00
2017-10-24T16:24:53.194Z,16.00
2017-10-24T16:27:22.500Z,15.90
2017-10-24T16:29:50.754Z,15.90
2017-10-24T16:32:18.184Z,15.90
2017-10-24T16:34:45.620Z,15.80
2017-10-24T16:37:13.059Z,15.90
2017-10-24T16:39:40.600Z,15.80
2017-10-24T16:42:08.792Z,15.70
2017-10-24T16:44:36.326Z,15.70
2017-10-24T16:47:06.544Z,15.60
2017-10-24T16:49:36.210Z,15.60
2017-10-24T16:52:03.839Z,15.60
2017-10-24T16:54:31.416Z,15.50
2017-10-24T16:57:03.942Z,15.50
2017-10-24T16:59:32.533Z,15.40
2017-10-24T17:02:00.022Z,15.40
2017-10-24T17:04:31.237Z,15.30
2017-10-24T17:06:58.717Z,15.20
2017-10-24T17:09:27.165Z,15.20
2017-10-24T17:11:54.621Z,15.10
2017-10-24T17:14:22.060Z,15.10
2017-10-24T17:16:49.496Z,15.10
2017-10-24T17:19:16.924Z,15.00
2017-10-24T17:21:44.361Z,15.10
2017-10-24T17:24:12.565Z,15.00
2017-10-24T17:26:40.049Z,15.00
2017-10-24T17:29:08.256Z,15.00
2017-10-24T17:31:35.718Z,15.00
2017-10-24T17:34:03.160Z,15.00
2017-10-24T17:36:30.588Z,15.00
2017-10-24T17:38:58.039Z,15.00
2017-10-24T17:41:25.481Z,14.90
2017-10-24T17:43:52.917Z,14.90
2017-10-24T17:46:21.154Z,14.90
2017-10-24T17:48:48.585Z,14.80
2017-10-24T17:51:16.016Z,14.90
2017-10-24T17:53:43.646Z,14.90
2017-10-24T17:56:12.211Z,14.80
2017-10-24T17:58:39.642Z,14.80
2017-10-24T18:01:07.110Z,14.80
2017-10-24T18:03:34.556Z,14.80
2017-10-24T18:06:01.985Z,14.70
2017-10-24T18:08:30.222Z,14.60
2017-10-24T18:10:57.653Z,14.60
2017-10-24T18:13:25.084Z,14.50
2017-10-24T18:15:53.053Z,14.50
2017-10-24T18:18:20.481Z,14.50
2017-10-24T18:20:48.912Z,14.60
2017-10-24T18:23:16.351Z,14.50
2017-10-24T18:25:43.781Z,14.50
2017-10-24T18:28:11.225Z,14.50
2017-10-24T18:30:40.636Z,14.60
2017-10-24T18:33:08.825Z,14.60
2017-10-24T18:35:37.038Z,14.60
2017-10-24T18:38:04.468Z,14.60
2017-10-24T18:40:31.913Z,14.50
2017-10-24T18:43:00.117Z,14.50
2017-10-24T18:45:27.545Z,14.40
2017-10-24T18:47:55.765Z,14.50
2017-10-24T18:50:23.189Z,14.50
2017-10-24T18:52:50.620Z,14.40
2017-10-24T18:55:18.832Z,14.50
2017-10-24T18:57:46.270Z,14.50
2017-10-24T19:00:13.700Z,14.50
2017-10-24T19:02:45.873Z,14.50
2017-10-24T19:05:14.074Z,14.50
2017-10-24T19:07:41.507Z,14.50
2017-10-24T19:10:09.713Z,14.50
2017-10-24T19:12:37.154Z,14.50
2017-10-24T19:15:05.337Z,14.50
2017-10-24T19:17:32.786Z,14.50
2017-10-24T19:20:00.980Z,14.50
2017-10-24T19:22:28.400Z,14.50
2017-10-24T19:24:56.616Z,14.40
2017-10-24T19:27:24.052Z,14.40
2017-10-24T19:29:51.493Z,14.50
2017-10-24T19:32:19.688Z,14.50
2017-10-24T19:34:47.126Z,14.50
2017-10-24T19:37:15.312Z,14.40
2017-10-24T19:39:42.757Z,14.40
2017-10-24T19:42:10.968Z,14.50
2017-10-24T19:44:38.398Z,14.50
2017-10-24T19:47:05.844Z,14.50
2017-10-24T19:49:34.108Z,14.50
2017-10-24T19:52:01.573Z,14.50
2017-10-24T19:54:29.773Z,14.50
2017-10-24T19:56:59.672Z,14.50
2017-10-24T19:59:30.810Z,14.50
2017-10-24T20:01:59.025Z,14.50
2017-10-24T20:04:26.466Z,14.50
2017-10-24T20:06:53.901Z,14.50
2017-10-24T20:09:22.161Z,14.50
2017-10-24T20:11:49.600Z,14.50
2017-10-24T20:14:17.037Z,14.50
2017-10-24T20:16:44.482Z,14.60
2017-10-24T20:19:11.922Z,14.50
2017-10-24T20:21:39.358Z,14.50
2017-10-24T20:24:08.658Z,14.60
2017-10-24T20:26:36.865Z,14.60
2017-10-24T20:29:04.297Z,14.60
2017-10-24T20:31:31.748Z,14.70
2017-10-24T20:33:59.963Z,14.60
2017-10-24T20:36:28.406Z,14.60
2017-10-24T20:38:56.661Z,14.70
2017-10-24T20:41:24.093Z,14.70
2017-10-24T20:43:51.581Z,14.70
2017-10-24T20:46:20.893Z,14.70
2017-10-24T20:48:53.700Z,14.70
2017-10-24T20:51:21.150Z,14.70
2017-10-24T20:53:49.350Z,14.70
2017-10-24T20:56:16.781Z,14.70
2017-10-24T20:58:44.217Z,14.80
2017-10-24T21:01:12.412Z,14.70
2017-10-24T21:03:39.849Z,14.70
2017-10-24T21:06:08.044Z,14.70
2017-10-24T21:08:35.521Z,14.70
2017-10-24T21:11:03.030Z,14.70
2017-10-24T21:13:30.475Z,14.70
2017-10-24T21:15:57.909Z,14.70
2017-10-24T21:18:25.347Z,14.70
2017-10-24T21:20:52.785Z,14.70
2017-10-24T21:23:20.233Z,14.60
2017-10-24T21:25:48.435Z,14.60
2017-10-24T21:28:15.869Z,14.60
2017-10-24T21:30:43.312Z,14.60
2017-10-24T21:33:11.580Z,14.70
2017-10-24T21:35:39.787Z,14.70
2017-10-24T21:38:07.224Z,14.70
2017-10-24T21:40:35.428Z,14.60
2017-10-24T21:43:02.861Z,14.60
2017-10-24T21:45:31.063Z,14.70
2017-10-24T21:47:58.497Z,14.70
2017-10-24T21:50:25.937Z,14.70
2017-10-24T21:52:54.150Z,14.70
2017-10-24T21:55:21.580Z,14.70
2017-10-24T21:57:49.788Z,14.70
2017-10-24T22:00:32.089Z,14.70
2017-10-24T22:02:59.523Z,14.80
2017-10-24T22:05:26.974Z,14.80
2017-10-24T22:07:55.180Z,14.80
2017-10-24T22:10:22.616Z,14.70
2017-10-24T22:12:50.065Z,14.80
2017-10-24T22:15:17.499Z,14.80
2017-10-24T22:17:44.937Z,14.80
2017-10-24T22:20:12.413Z,14.80
2017-10-24T22:22:39.854Z,14.90
2017-10-24T22:25:07.293Z,14.90
2017-10-24T22:27:34.733Z,14.90
2017-10-24T22:30:02.156Z,14.90
2017-10-24T22:32:30.422Z,15.00
2017-10-24T22:34:57.832Z,15.00
2017-10-24T22:37:25.262Z,15.00
2017-10-24T22:39:52.693Z,15.00
2017-10-24T22:42:20.885Z,14.90
2017-10-24T22:44:48.325Z,14.90
2017-10-24T22:47:16.525Z,14.90
2017-10-24T22:49:43.974Z,14.90
2017-10-24T22:52:11.433Z,14.80
2017-10-24T22:54:39.620Z,14.90
2017-10-24T22:57:07.048Z,14.90
2017-10-24T22:59:34.499Z,14.80
2017-10-24T23:02:01.917Z,14.80
2017-10-24T23:04:29.356Z,14.80
2017-10-24T23:06:56.913Z,14.80
2017-10-24T23:09:24.325Z,14.80
2017-10-24T23:11:53.530Z,14.70
2017-10-24T23:14:21.738Z,14.70
2017-10-24T23:16:49.182Z,14.70
2017-10-24T23:19:17.374Z,14.60
2017-10-24T23:21:44.801Z,14.60
2017-10-24T23:24:13.004Z,14.70
2017-10-24T23:26:40.450Z,14.70
2017-10-24T23:29:07.894Z,14.70
2017-10-24T23:31:35.326Z,14.70
2017-10-24T23:34:02.792Z,14.70
2017-10-24T23:36:30.234Z,14.70
2017-10-24T23:38:57.672Z,14.60
2017-10-24T23:41:25.100Z,14.60
2017-10-24T23:43:52.541Z,14.60
2017-10-24T23:46:19.990Z,14.60
2017-10-24T23:48:47.421Z,14.60
2017-10-24T23:51:14.849Z,14.60
2017-10-24T23:53:42.298Z,14.60
2017-10-24T23:56:09.723Z,14.60
2017-10-24T23:58:37.169Z,14.50
